Main page
METAR-TAF:

METAR-TAF

Airports :

Plovdiv Airport

Plovdiv, Bulgaria

latitude: 42-08N, longitude: 024-45E, elevation: 179 m

Current weather observation

The report was made 16 minutes ago, at 12:30 UTC
Wind 5 kt from variable directions
Temperature 26°C
Humidity 37%
Pressure 1019 hPa
Visibility 10 km or more

METAR: LBPD 211230Z AUTO VRB05KT 9999 NCD 26/10 Q1019 NOSIG

Time: 15:46 (12:46 UTC)

Forecast

The report was made 1 hour and 46 minutes ago, at 11:00 UTC
Forecast valid from 21 at 12 UTC to 22 at 12 UTC
Wind 10 kt from the East
Visibility 10 km or more
no clouds below 1500 m and no cumulonimbus
Becoming
from 21 at 18 UTC to 21 at 20 UTC
Wind 4 kt from variable directions

TAF: LBPD 211100Z 2112/2212 09010KT CAVOK BECMG 2118/2120 VRB04KT

Weather observations and forecasts of more than 4000 airports (METAR and TAF reports).

The available stations are represented by yellow and red dots on the map.

Hover mouse over dot to see the name of the station.

Then click to see weather observations and forecasts.

To change the map : click on the green buttons with a black cross to zoom in, on the green button with a dash to zoom out, or on the green arrows for adjacent maps.


METAR-TAF: